Saronic Champion — A8XF5 — position and weather

sailwx.info

Track history (hours):
 
Tides and Currents Weather Stations Pressure Air Temp Water Temp Dewpoint Dewpoint Depression Visibility Wind Speed Wind Dir Waves Ship Positions

Saronic Champion

Last reported at 2016-Jul-20 12:25 UTC. Time now 2016-Jul-24 08:47 UTC.
Position S 30°58' E 037°27'.

Length 229 m; draft 11.6 m.

Type: Cargo ship. MMSI: 636014887.

Date/timePositionNaut miles runAvg speedWind from/ knotsBaromVisibWave heightAir tempDewpointWater temp
2016-Jul-20 12:25S 30°58' E 037°27'5813.4
2016-Jul-20 08:05S 31°24' E 036°27'2514.1
2016-Jul-20 06:20S 31°35' E 036°01'9413.5
2016-Jul-19 23:25S 32°17' E 034°23'1313.4
2016-Jul-19 22:27S 32°23' E 034°09'1213.5
2016-Jul-19 21:34S 32°28' E 033°56'4013.3
2016-Jul-19 18:33S 32°46' E 033°14'1413.7
2016-Jul-19 17:33S 32°52' E 032°59'1413.7
2016-Jul-19 16:33S 32°58' E 032°45'2013.7
2016-Jul-19 15:07S 33°08' E 032°24'814.3
2016-Jul-19 14:34S 33°11' E 032°15'1414.4
2016-Jul-19 13:34S 33°18' E 031°60'1414.2
2016-Jul-19 12:33S 33°24' E 031°45'1413.6
2016-Jul-19 11:34S 33°30' E 031°30'1413.6
2016-Jul-19 10:34S 33°36' E 031°16'1313.5
2016-Jul-19 09:33S 33°42' E 031°01'1313.0
2016-Jul-19 08:33S 33°48' E 030°47'1313.0
2016-Jul-19 07:33S 33°54' E 030°33'  
Track history (hours):
 
Tides and Currents Weather Stations Pressure Air Temp Water Temp Dewpoint Dewpoint Depression Visibility Wind Speed Wind Dir Waves Ship Positions

Saronic Champion

Last reported at 2016-Jul-20 12:25 UTC. Time now 2016-Jul-24 08:47 UTC.
Position S 30°58' E 037°27'.

Length 229 m; draft 11.6 m.

Type: Cargo ship. MMSI: 636014887.

Date/timePositionNaut miles runAvg speedWind from/ knotsBaromVisibWave heightAir tempDewpointWater temp
2016-Jul-20 12:25S 30°58' E 037°27'5813.4
2016-Jul-20 08:05S 31°24' E 036°27'2514.1
2016-Jul-20 06:20S 31°35' E 036°01'9413.5
2016-Jul-19 23:25S 32°17' E 034°23'1313.4
2016-Jul-19 22:27S 32°23' E 034°09'1213.5
2016-Jul-19 21:34S 32°28' E 033°56'4013.3
2016-Jul-19 18:33S 32°46' E 033°14'1413.7
2016-Jul-19 17:33S 32°52' E 032°59'1413.7
2016-Jul-19 16:33S 32°58' E 032°45'2013.7
2016-Jul-19 15:07S 33°08' E 032°24'814.3
2016-Jul-19 14:34S 33°11' E 032°15'1414.4
2016-Jul-19 13:34S 33°18' E 031°60'1414.2
2016-Jul-19 12:33S 33°24' E 031°45'1413.6
2016-Jul-19 11:34S 33°30' E 031°30'1413.6
2016-Jul-19 10:34S 33°36' E 031°16'1313.5
2016-Jul-19 09:33S 33°42' E 031°01'1313.0
2016-Jul-19 08:33S 33°48' E 030°47'1313.0
2016-Jul-19 07:33S 33°54' E 030°33'  

Dump ship's entire track history